CDT,Max TemperatureF,Mean TemperatureF,Min TemperatureF,Max Dew PointF,MeanDew PointF,Min DewpointF,Max Humidity, Mean Humidity, Min Humidity, Max Sea Level PressureIn, Mean Sea Level PressureIn, Min Sea Level PressureIn, Max VisibilityMiles, Mean VisibilityMiles, Min VisibilityMiles, Max Wind SpeedMPH, Mean Wind SpeedMPH, Max Gust SpeedMPH,PrecipitationIn, CloudCover, Events, WindDirDegrees
2013-4-1,59,49,39,46,39,32,100,76,51,30.22,30.13,29.99,10,10,10,14,4,20,0.00,3,Rain-Thunderstorm,31
2013-4-2,42,40,37,41,38,32,100,94,66,30.30,30.24,30.21,10,9,4,13,6,18,0.01,7,Rain,60
2013-4-3,51,45,39,39,31,27,100,59,40,30.28,30.22,30.18,10,10,10,20,5,25,0.00,8,,69
2013-4-4,59,50,41,41,36,32,87,63,36,30.18,30.14,30.09,10,10,10,10,2,24,0.00,5,,318
2013-4-5,71,52,32,46,38,32,100,65,27,30.23,30.12,29.98,10,10,7,9,1,,0.00,0,,192
2013-4-6,77,67,57,50,44,36,59,46,34,29.98,29.88,29.80,10,10,10,26,11,38,0.00,0,,190
2013-4-7,78,64,50,59,55,50,100,68,47,29.92,29.84,29.75,10,10,10,23,7,31,0.00,3,,171
2013-4-8,75,68,62,63,59,55,100,74,61,29.80,29.75,29.71,10,10,7,21,12,30,0.00,6,Rain-Thunderstorm,153
2013-4-9,80,74,68,63,60,55,73,62,51,29.77,29.73,29.69,10,10,7,18,10,26,0.00,7,,155
2013-4-10,75,56,35,61,43,36,100,96,61,29.96,29.86,29.73,10,8,1,18,9,28,0.00,8,Rain-Thunderstorm,293
2013-4-11,53,44,35,36,33,30,100,75,44,29.94,29.85,29.78,10,10,5,14,7,21,0.00,5,,278
2013-4-12,57,45,33,43,34,30,100,65,38,30.05,29.97,29.83,10,10,10,14,3,18,0.00,0,,297
2013-4-13,73,56,39,46,42,37,100,68,33,30.08,29.95,29.78,10,10,10,17,4,22,0.00,2,,150
2013-4-14,80,68,57,57,48,43,72,48,29,29.78,29.64,29.53,10,10,10,26,11,32,0.00,1,,170
2013-4-15,78,66,53,63,50,37,88,63,45,29.90,29.77,29.70,10,10,3,15,8,21,0.00,6,,12
2013-4-16,64,58,51,55,51,45,100,84,72,30.01,29.95,29.88,10,10,7,12,7,18,0.00,6,Rain,39
2013-4-17,82,68,53,72,63,52,100,78,54,29.96,29.81,29.60,10,9,4,22,6,32,0.00,5,Rain-Thunderstorm,159
2013-4-18,71,56,41,72,46,28,100,87,61,30.05,29.81,29.55,10,8,2,24,11,36,0.02,8,Rain-Thunderstorm,282
2013-4-19,59,47,35,37,31,28,81,58,34,30.14,30.08,30.03,10,10,10,16,10,25,0.00,2,,271
2013-4-20,69,52,35,43,37,34,100,62,27,30.21,30.14,30.08,10,10,10,13,2,18,0.00,0,,140
2013-4-21,71,61,51,43,40,37,67,48,31,30.27,30.19,30.12,10,10,10,18,8,23,0.00,1,,143
2013-4-22,73,58,44,46,42,37,87,49,33,30.19,30.04,29.90,10,10,4,16,8,24,0.00,1,Thunderstorm,144
2013-4-23,64,50,37,55,45,37,100,94,49,30.18,30.00,29.83,10,8,2,17,8,23,0.00,8,Rain-Thunderstorm,360
2013-4-24,53,44,35,37,33,28,100,72,38,30.33,30.27,30.18,10,10,7,18,8,25,0.00,3,Thunderstorm,321
2013-4-25,71,52,32,41,34,32,100,58,23,30.38,30.30,30.21,10,10,7,9,2,,0.00,0,,132
2013-4-26,59,54,50,54,48,36,100,84,42,30.32,30.19,30.10,10,8,2,18,8,28,0.00,8,Rain-Thunderstorm,109
2013-4-27,55,54,53,55,54,54,100,100,100,30.11,30.06,30.01,10,9,2,12,4,20,0.00,8,Rain-Thunderstorm,325
2013-4-28,75,63,51,55,53,50,100,75,47,30.06,29.97,29.87,10,9,5,7,1,,0.00,3,,189
2013-4-29,87,70,53,61,55,50,100,59,27,29.90,29.83,29.75,10,10,10,20,8,25,0.00,0,,181
2013-4-30,84,72,60,57,53,48,82,51,29,29.86,29.83,29.79,10,10,10,17,10,26,0.00,0,,160